Time;durP1;ratioP1;P1;durP2;ratioP2;P2;SDS_P1;SDS_P2;PMS_P1;PMS_P2;Temp;Humidity;BMP_temperature;BMP_pressure;BME280_temperature;BME280_humidity;BME280_pressure;Samples;Min_cycle;Max_cycle;Signal;HPM_P1;HPM_P2
2021/07/26 00:00:00;;;;;;;1.95;0.60;;;14.10;99.90;;;;;;5070998;28;20370;-78
2021/07/26 00:02:27;;;;;;;2.15;0.35;;;14.30;99.90;;;;;;5072890;28;20378;-79
2021/07/26 00:04:54;;;;;;;2.85;0.50;;;14.40;99.90;;;;;;5071253;28;20358;-78
2021/07/26 00:07:21;;;;;;;1.70;0.40;;;14.60;99.90;;;;;;5070745;28;20440;-79
2021/07/26 00:09:48;;;;;;;0.60;0.30;;;14.60;99.90;;;;;;5057470;28;20756;-79
2021/07/26 00:12:15;;;;;;;1.60;0.50;;;14.70;99.70;;;;;;5070893;28;20798;-78
2021/07/26 00:14:42;;;;;;;1.25;0.40;;;14.80;99.90;;;;;;5070788;28;20378;-79
2021/07/26 00:17:09;;;;;;;0.52;0.40;;;14.90;99.90;;;;;;5070137;28;20398;-79
2021/07/26 00:19:36;;;;;;;1.10;0.50;;;15.00;99.40;;;;;;5071188;28;20470;-79
2021/07/26 00:22:05;;;;;;;3.15;0.38;;;15.30;99.80;;;;;;5070727;28;20424;-80
2021/07/26 00:24:33;;;;;;;1.70;0.30;;;15.60;98.90;;;;;;5091421;28;20381;-79
2021/07/26 00:27:00;;;;;;;0.75;0.25;;;15.90;97.80;;;;;;5080698;28;20390;-80
2021/07/26 00:29:28;;;;;;;1.33;0.30;;;16.00;98.30;;;;;;5070699;28;20389;-79
2021/07/26 00:31:55;;;;;;;2.17;0.63;;;16.20;98.20;;;;;;5089271;28;20479;-79
2021/07/26 00:34:29;;;;;;;0.65;0.28;;;16.20;97.60;;;;;;5080492;28;20370;-80
2021/07/26 00:37:02;;;;;;;0.80;0.20;;;16.20;97.90;;;;;;5070629;28;20899;-80
2021/07/26 00:39:32;;;;;;;0.73;0.40;;;16.10;97.40;;;;;;5071423;28;20370;-79
2021/07/26 00:42:00;;;;;;;1.40;0.30;;;16.00;97.30;;;;;;5071288;28;20457;-80
2021/07/26 00:44:29;;;;;;;1.23;0.10;;;16.10;97.50;;;;;;5071543;28;20378;-80
2021/07/26 00:46:57;;;;;;;1.25;0.20;;;16.10;97.10;;;;;;5069708;28;20393;-80
2021/07/26 00:49:25;;;;;;;0.40;0.30;;;16.10;97.10;;;;;;5069558;28;20463;-80
2021/07/26 00:51:55;;;;;;;1.10;0.20;;;16.10;97.80;;;;;;5069628;28;20416;-81
2021/07/26 00:54:29;;;;;;;0.82;0.30;;;16.20;97.90;;;;;;5069085;28;20394;-80
2021/07/26 00:56:59;;;;;;;2.60;0.20;;;16.20;96.10;;;;;;5071104;28;20904;-80
2021/07/26 00:59:27;;;;;;;0.28;0.10;;;16.10;95.40;;;;;;5069804;28;20378;-81
2021/07/26 01:01:55;;;;;;;1.90;0.30;;;16.20;95.40;;;;;;5065994;28;20393;-81
2021/07/26 01:04:22;;;;;;;0.30;0.20;;;16.10;96.10;;;;;;5069519;28;20374;-79
2021/07/26 01:06:49;;;;;;;2.00;0.30;;;16.00;96.00;;;;;;5071277;28;20858;-79
2021/07/26 01:09:16;;;;;;;0.68;0.13;;;16.00;96.60;;;;;;5073406;28;20532;-80
2021/07/26 01:11:45;;;;;;;1.15;0.30;;;16.00;96.70;;;;;;5070090;28;20447;-81
2021/07/26 01:14:16;;;;;;;1.70;0.22;;;16.00;96.50;;;;;;5066084;28;20416;-80
2021/07/26 01:16:46;;;;;;;0.22;0.20;;;16.00;96.90;;;;;;5067925;28;20410;-80
2021/07/26 01:19:13;;;;;;;0.22;0.20;;;16.00;97.30;;;;;;5069483;28;20409;-80
2021/07/26 01:21:40;;;;;;;0.10;0.10;;;16.10;96.50;;;;;;5069080;28;20385;-80
2021/07/26 01:24:08;;;;;;;0.20;0.10;;;16.40;95.90;;;;;;5069199;28;20402;-81
2021/07/26 01:26:35;;;;;;;0.20;0.10;;;16.60;94.90;;;;;;5069105;28;20389;-80
2021/07/26 01:29:05;;;;;;;0.15;0.10;;;16.70;95.10;;;;;;5069093;28;20398;-79
2021/07/26 01:31:32;;;;;;;0.10;0.10;;;16.90;94.60;;;;;;5069789;28;20374;-80
2021/07/26 01:34:00;;;;;;;1.00;0.13;;;17.10;94.50;;;;;;5068129;28;20390;-80
2021/07/26 01:36:27;;;;;;;0.10;0.10;;;17.20;94.00;;;;;;5063050;28;20909;-80
2021/07/26 01:38:54;;;;;;;0.40;0.15;;;17.20;94.60;;;;;;5069423;28;20362;-81
2021/07/26 01:41:26;;;;;;;1.77;0.30;;;17.30;93.70;;;;;;5069810;28;20371;-81
2021/07/26 01:46:43;;;;;;;0.30;0.10;;;17.40;92.90;;;;;;5069117;28;20416;-82
2021/07/26 01:49:36;;;;;;;0.65;0.28;;;17.30;92.50;;;;;;5068612;28;20756;-81
2021/07/26 01:52:05;;;;;;;0.00;0.00;;;17.30;92.40;;;;;;5078104;28;20380;-81
2021/07/26 01:54:32;;;;;;;1.00;0.10;;;17.20;93.10;;;;;;5059653;28;20751;-79
2021/07/26 01:57:01;;;;;;;0.28;0.17;;;17.30;92.90;;;;;;5056240;28;20477;-80
2021/07/26 01:59:29;;;;;;;0.10;0.10;;;17.40;92.00;;;;;;5068916;28;20380;-80
2021/07/26 02:01:56;;;;;;;0.50;0.10;;;17.40;92.40;;;;;;5067792;28;20436;-79
2021/07/26 02:04:23;;;;;;;0.00;0.00;;;17.40;92.00;;;;;;5064783;28;20385;-80
2021/07/26 02:06:50;;;;;;;0.20;0.20;;;17.40;92.10;;;;;;5067794;28;20418;-78
2021/07/26 02:09:17;;;;;;;0.10;0.10;;;17.50;92.60;;;;;;5068716;28;20381;-79
2021/07/26 02:11:44;;;;;;;0.20;0.10;;;17.70;92.60;;;;;;5059199;28;20391;-79
2021/07/26 02:14:11;;;;;;;1.00;0.10;;;17.80;91.30;;;;;;5064413;28;20775;-79
2021/07/26 02:16:52;;;;;;;2.10;0.10;;;17.60;90.90;;;;;;5060865;28;20489;-79
2021/07/26 02:19:20;;;;;;;0.20;0.10;;;17.60;90.80;;;;;;5060381;28;20379;-79
2021/07/26 02:21:47;;;;;;;0.17;0.10;;;17.40;90.50;;;;;;5056167;28;20509;-78
2021/07/26 02:24:14;;;;;;;0.50;0.10;;;17.50;91.00;;;;;;5060459;28;20402;-79
2021/07/26 02:26:42;;;;;;;0.25;0.10;;;17.50;90.70;;;;;;5065343;28;20383;-77
2021/07/26 02:29:09;;;;;;;0.60;0.10;;;17.50;90.90;;;;;;5057558;28;20933;-78
2021/07/26 02:31:36;;;;;;;23.63;1.07;;;17.60;89.80;;;;;;5048326;28;20368;-79
2021/07/26 02:34:03;;;;;;;1.10;0.07;;;17.50;90.90;;;;;;5055405;28;20688;-78
2021/07/26 02:36:30;;;;;;;12.82;0.55;;;17.50;90.90;;;;;;5068406;28;20437;-79
2021/07/26 02:38:57;;;;;;;26.67;1.17;;;17.50;90.60;;;;;;5061969;28;20738;-81
2021/07/26 02:41:24;;;;;;;3.67;0.38;;;17.50;90.40;;;;;;5062506;28;20382;-81
2021/07/26 02:43:51;;;;;;;0.10;0.08;;;17.40;90.50;;;;;;5068515;28;20370;-79
2021/07/26 02:46:18;;;;;;;1.52;0.00;;;17.50;91.00;;;;;;5064469;28;20882;-80
2021/07/26 02:48:45;;;;;;;1.52;0.20;;;17.70;90.90;;;;;;5068430;28;20450;-80
2021/07/26 02:51:13;;;;;;;38.83;2.15;;;17.80;90.90;;;;;;5068537;28;20413;-80
2021/07/26 02:53:43;;;;;;;0.50;0.10;;;18.10;89.10;;;;;;5068830;28;20410;-81
2021/07/26 02:56:11;;;;;;;7.57;0.40;;;18.00;88.10;;;;;;5068516;28;20460;-78
2021/07/26 02:58:38;;;;;;;0.40;0.10;;;18.00;84.80;;;;;;5048674;28;20382;-79
2021/07/26 03:01:10;;;;;;;2.88;0.10;;;17.90;84.10;;;;;;5061630;28;20388;-80
2021/07/26 03:03:40;;;;;;;0.40;0.10;;;17.80;84.00;;;;;;5061869;28;20379;-80
2021/07/26 03:06:27;;;;;;;1.53;0.10;;;17.80;84.10;;;;;;5068333;28;20416;-79
2021/07/26 03:08:57;;;;;;;4.40;0.20;;;17.90;82.20;;;;;;5060389;28;20388;-80
2021/07/26 03:11:24;;;;;;;15.63;0.90;;;17.80;83.00;;;;;;5048747;28;20487;-80
2021/07/26 03:13:51;;;;;;;4.07;0.20;;;17.90;82.60;;;;;;5048500;28;20408;-80
2021/07/26 03:16:18;;;;;;;1.80;0.10;;;17.80;83.60;;;;;;5048278;28;20443;-78
2021/07/26 03:19:26;;;;;;;5.95;0.50;;;17.70;85.10;;;;;;5056750;28;20386;-79
2021/07/26 03:22:37;;;;;;;17.63;0.97;;;17.70;81.10;;;;;;5074043;28;20451;-80
2021/07/26 03:25:05;;;;;;;8.40;0.55;;;17.60;82.10;;;;;;5071812;28;20871;-80
2021/07/26 03:27:38;;;;;;;0.65;0.10;;;17.60;81.10;;;;;;5069533;28;20383;-80
2021/07/26 03:30:05;;;;;;;0.70;0.10;;;17.50;81.90;;;;;;5067517;28;20389;-78
2021/07/26 03:32:32;;;;;;;1.10;0.00;;;17.40;81.90;;;;;;5052560;28;20424;-80
2021/07/26 03:34:59;;;;;;;1.20;0.20;;;17.50;83.10;;;;;;5053017;28;20384;-79
2021/07/26 03:37:26;;;;;;;0.90;0.38;;;17.60;83.40;;;;;;5062212;28;20397;-79
2021/07/26 03:39:53;;;;;;;19.05;0.90;;;17.70;83.90;;;;;;5067227;28;20384;-79
2021/07/26 03:42:20;;;;;;;0.40;0.05;;;17.90;88.50;;;;;;5067073;28;20465;-80
2021/07/26 03:44:48;;;;;;;1.30;0.20;;;18.00;86.10;;;;;;5066225;28;20385;-79
2021/07/26 03:47:15;;;;;;;2.30;0.10;;;18.00;82.50;;;;;;5070406;28;20974;-80
2021/07/26 03:49:42;;;;;;;1.40;0.10;;;18.00;82.20;;;;;;5051431;28;20502;-80
2021/07/26 03:52:09;;;;;;;1.30;0.20;;;18.00;81.80;;;;;;5052308;28;20462;-79
2021/07/26 03:54:36;;;;;;;0.35;0.10;;;17.90;80.70;;;;;;5057530;28;20447;-79
2021/07/26 03:57:04;;;;;;;0.10;0.10;;;17.80;81.70;;;;;;5053630;28;20407;-80
2021/07/26 03:59:31;;;;;;;0.80;0.10;;;17.90;82.30;;;;;;5053533;28;20425;-79
2021/07/26 04:01:58;;;;;;;5.18;0.45;;;18.00;82.10;;;;;;5064095;28;20386;-77
2021/07/26 04:04:25;;;;;;;0.70;0.10;;;18.10;78.40;;;;;;5072555;28;20470;-79
2021/07/26 04:06:56;;;;;;;0.10;0.00;;;18.10;80.90;;;;;;5073495;28;20402;-79
2021/07/26 04:09:26;;;;;;;3.00;0.10;;;18.10;79.60;;;;;;5070502;28;20394;-78
2021/07/26 04:12:06;;;;;;;1.08;0.28;;;18.00;78.40;;;;;;5072002;28;20381;-79
2021/07/26 04:14:37;;;;;;;2.10;0.20;;;17.90;78.70;;;;;;5072755;28;20443;-80
2021/07/26 04:17:05;;;;;;;1.50;0.25;;;17.90;81.40;;;;;;5072673;28;20408;-80
2021/07/26 04:19:32;;;;;;;0.40;0.00;;;17.90;78.80;;;;;;5072087;28;20410;-79
2021/07/26 04:21:59;;;;;;;0.10;0.00;;;17.90;81.20;;;;;;5070756;28;20381;-80
2021/07/26 04:24:26;;;;;;;0.95;0.10;;;18.00;81.10;;;;;;5070264;28;20378;-79
2021/07/26 04:26:54;;;;;;;0.60;0.30;;;18.00;80.20;;;;;;5070813;28;20374;-80
2021/07/26 04:29:21;;;;;;;7.78;0.40;;;18.00;82.00;;;;;;5070393;28;20372;-80
2021/07/26 04:31:50;;;;;;;0.60;0.10;;;18.00;79.20;;;;;;5070498;28;20722;-80
2021/07/26 04:34:17;;;;;;;2.83;0.30;;;18.00;79.70;;;;;;5070769;28;20732;-80
2021/07/26 04:36:44;;;;;;;1.13;0.00;;;18.10;79.70;;;;;;5070418;28;20406;-81
2021/07/26 04:39:11;;;;;;;0.10;0.10;;;18.20;77.90;;;;;;5070577;28;20378;-79
2021/07/26 04:41:38;;;;;;;1.10;0.10;;;18.20;78.60;;;;;;5070923;28;20760;-79
2021/07/26 04:44:06;;;;;;;0.20;0.10;;;18.20;77.30;;;;;;5070454;28;20470;-79
2021/07/26 04:46:33;;;;;;;0.00;0.00;;;18.10;76.80;;;;;;5070357;28;20374;-80
2021/07/26 04:49:01;;;;;;;1.25;0.10;;;18.10;78.30;;;;;;5070312;28;20366;-80
2021/07/26 04:51:31;;;;;;;0.70;0.10;;;18.00;77.80;;;;;;5070213;28;20429;-80
2021/07/26 04:53:58;;;;;;;0.93;0.05;;;18.10;78.80;;;;;;5066459;28;20464;-80
2021/07/26 04:56:25;;;;;;;0.90;0.20;;;18.10;79.00;;;;;;5069426;28;20413;-79
2021/07/26 04:58:52;;;;;;;0.22;0.20;;;18.00;76.80;;;;;;5069902;28;20377;-80
2021/07/26 05:01:19;;;;;;;0.82;0.10;;;17.90;79.10;;;;;;5070040;28;20378;-79
2021/07/26 05:03:46;;;;;;;1.05;0.20;;;17.90;76.30;;;;;;5070223;28;20374;-79
2021/07/26 05:06:13;;;;;;;1.40;0.10;;;17.70;77.40;;;;;;5069859;28;20370;-79
2021/07/26 05:08:40;;;;;;;0.90;0.10;;;17.60;78.00;;;;;;5069872;28;20426;-80
2021/07/26 05:11:07;;;;;;;1.13;0.13;;;17.40;79.50;;;;;;5070025;28;20378;-81
2021/07/26 05:13:36;;;;;;;1.20;0.20;;;17.30;78.40;;;;;;5069975;28;20875;-80
2021/07/26 05:16:04;;;;;;;0.50;0.20;;;17.10;77.80;;;;;;5068514;28;20433;-79
2021/07/26 05:18:30;;;;;;;1.33;0.20;;;16.90;78.40;;;;;;5068617;28;20408;-79
2021/07/26 05:20:57;;;;;;;0.65;0.20;;;16.80;79.60;;;;;;5069114;28;20424;-80
2021/07/26 05:23:24;;;;;;;0.90;0.22;;;16.80;79.30;;;;;;5067503;28;20401;-80
2021/07/26 05:25:51;;;;;;;0.75;0.20;;;16.70;81.10;;;;;;5069062;28;20413;-80
2021/07/26 05:28:18;;;;;;;1.17;0.30;;;16.60;80.60;;;;;;5068353;28;20385;-80
2021/07/26 05:30:46;;;;;;;0.35;0.10;;;16.60;81.80;;;;;;5068610;28;20448;-79
2021/07/26 05:33:13;;;;;;;0.47;0.20;;;16.50;83.30;;;;;;5069190;28;20390;-81
2021/07/26 05:35:41;;;;;;;1.60;0.40;;;16.40;82.40;;;;;;5068992;28;20432;-80
2021/07/26 05:38:08;;;;;;;0.30;0.10;;;16.40;84.30;;;;;;5068918;28;20382;-80
2021/07/26 05:40:35;;;;;;;0.05;0.05;;;16.30;84.30;;;;;;5082175;28;20465;-80
2021/07/26 05:43:03;;;;;;;0.50;0.20;;;16.30;83.20;;;;;;5077051;28;20446;-80
2021/07/26 05:45:30;;;;;;;0.10;0.10;;;16.30;83.10;;;;;;5069047;28;20419;-80
2021/07/26 05:47:56;;;;;;;0.95;0.13;;;16.30;84.60;;;;;;5069265;28;20370;-80
2021/07/26 05:50:23;;;;;;;1.80;0.10;;;16.20;84.00;;;;;;5068765;28;20396;-80
2021/07/26 05:52:50;;;;;;;0.50;0.30;;;16.20;85.50;;;;;;5067783;28;20507;-80
2021/07/26 05:55:17;;;;;;;0.80;0.20;;;16.10;86.50;;;;;;5068837;28;20402;-79
2021/07/26 05:57:46;;;;;;;0.80;0.10;;;16.00;85.50;;;;;;5068640;28;20797;-80
2021/07/26 06:00:23;;;;;;;0.10;0.10;;;16.00;84.80;;;;;;5069003;28;20390;-80
2021/07/26 06:02:51;;;;;;;0.68;0.20;;;15.90;86.90;;;;;;5068619;28;20427;-80
2021/07/26 06:05:18;;;;;;;0.73;0.20;;;15.90;86.70;;;;;;5068621;28;20782;-80
2021/07/26 06:07:45;;;;;;;3.05;0.28;;;15.80;87.80;;;;;;5048979;28;20376;-81
2021/07/26 06:10:12;;;;;;;0.63;0.20;;;15.80;87.80;;;;;;5048750;28;20413;-80
2021/07/26 06:12:39;;;;;;;1.88;0.20;;;15.80;89.00;;;;;;5049329;28;20482;-80
2021/07/26 06:15:06;;;;;;;1.77;0.20;;;15.60;88.40;;;;;;5048820;28;20384;-80
2021/07/26 06:17:34;;;;;;;0.20;0.20;;;15.60;89.20;;;;;;5061445;28;20432;-80
2021/07/26 06:20:00;;;;;;;0.20;0.10;;;15.60;89.60;;;;;;5068699;28;20366;-79
2021/07/26 06:22:28;;;;;;;0.30;0.13;;;15.50;90.00;;;;;;5068498;28;20447;-80
2021/07/26 06:24:54;;;;;;;0.50;0.30;;;15.50;90.10;;;;;;5068567;28;20362;-80
2021/07/26 06:27:21;;;;;;;0.70;0.30;;;15.40;89.60;;;;;;5068382;28;20476;-80
2021/07/26 06:29:52;;;;;;;0.63;0.20;;;15.40;90.20;;;;;;5068902;28;20394;-79
2021/07/26 06:32:20;;;;;;;0.80;0.20;;;15.40;90.60;;;;;;5068101;28;20390;-80
2021/07/26 06:34:47;;;;;;;0.47;0.20;;;15.40;90.40;;;;;;5068638;28;20817;-80
2021/07/26 06:37:14;;;;;;;0.60;0.20;;;15.40;90.50;;;;;;5068338;28;20420;-80
2021/07/26 06:39:41;;;;;;;0.97;0.13;;;15.40;90.40;;;;;;5068423;28;20382;-80
2021/07/26 06:42:08;;;;;;;1.13;0.20;;;15.50;90.60;;;;;;5068913;28;20377;-80
2021/07/26 06:44:37;;;;;;;2.17;0.60;;;15.40;90.90;;;;;;5068795;28;20419;-80
2021/07/26 06:47:04;;;;;;;0.20;0.10;;;15.30;90.60;;;;;;5068571;28;20390;-79
2021/07/26 06:49:31;;;;;;;0.80;0.13;;;15.30;91.10;;;;;;5066693;28;20460;-80
2021/07/26 06:51:59;;;;;;;1.00;0.20;;;15.30;91.30;;;;;;5073209;28;20401;-80
2021/07/26 06:54:26;;;;;;;0.20;0.10;;;15.20;91.70;;;;;;5064205;28;20399;-80
2021/07/26 06:56:53;;;;;;;0.10;0.10;;;15.10;91.90;;;;;;5060068;28;20406;-79
2021/07/26 06:59:20;;;;;;;0.80;0.20;;;15.10;91.20;;;;;;5058775;28;20430;-78
2021/07/26 07:01:47;;;;;;;0.30;0.10;;;15.00;91.80;;;;;;5057977;28;20475;-78
2021/07/26 07:04:14;;;;;;;0.30;0.10;;;14.90;91.90;;;;;;5052655;28;20789;-79
2021/07/26 07:06:41;;;;;;;0.40;0.20;;;14.90;92.30;;;;;;5054028;28;20927;-80
2021/07/26 07:09:08;;;;;;;0.25;0.20;;;14.80;92.40;;;;;;5060084;28;20407;-80
2021/07/26 07:11:35;;;;;;;0.20;0.20;;;14.70;92.50;;;;;;5055232;28;21004;-79
2021/07/26 07:14:03;;;;;;;0.38;0.30;;;14.70;92.90;;;;;;5056298;28;20380;-79
2021/07/26 07:16:30;;;;;;;0.80;0.20;;;14.60;92.90;;;;;;5055453;28;20940;-79
2021/07/26 07:18:57;;;;;;;2.65;0.30;;;14.60;93.20;;;;;;5063977;28;20439;-79
2021/07/26 07:21:33;;;;;;;1.08;0.88;;;14.60;93.40;;;;;;5063713;28;20406;-79
2021/07/26 07:24:02;;;;;;;1.48;0.32;;;14.60;93.50;;;;;;5053518;28;20731;-80
2021/07/26 07:26:31;;;;;;;0.50;0.30;;;14.60;93.60;;;;;;5056053;28;20435;-79
2021/07/26 07:28:58;;;;;;;0.50;0.30;;;14.50;94.00;;;;;;5069003;28;20905;-79
2021/07/26 07:31:32;;;;;;;1.23;0.40;;;14.40;94.20;;;;;;5058262;28;20416;-81
2021/07/26 07:34:00;;;;;;;1.65;0.40;;;14.40;94.40;;;;;;5057905;28;20389;-80
2021/07/26 07:36:27;;;;;;;0.60;0.30;;;14.30;94.60;;;;;;5058688;28;20509;-79
2021/07/26 07:38:59;;;;;;;1.23;0.30;;;14.20;95.20;;;;;;5066565;28;20959;-80
2021/07/26 07:41:27;;;;;;;0.40;0.30;;;14.20;95.60;;;;;;5059851;28;20459;-79
2021/07/26 07:43:54;;;;;;;2.50;0.40;;;14.10;95.90;;;;;;5060223;28;20392;-79
2021/07/26 07:46:21;;;;;;;1.73;0.40;;;14.00;96.40;;;;;;5062875;28;20406;-78
2021/07/26 07:48:49;;;;;;;0.30;0.30;;;14.00;97.00;;;;;;5062155;28;20715;-79
2021/07/26 07:51:18;;;;;;;0.65;0.32;;;13.90;97.20;;;;;;5056771;28;20415;-78
2021/07/26 07:53:47;;;;;;;0.98;0.40;;;13.90;97.40;;;;;;5066470;28;20424;-79
2021/07/26 07:56:15;;;;;;;0.50;0.25;;;13.90;97.20;;;;;;5071236;28;20880;-79
2021/07/26 07:58:42;;;;;;;1.38;0.55;;;13.80;97.60;;;;;;5076454;28;20395;-82
2021/07/26 08:01:09;;;;;;;1.30;0.60;;;13.80;97.90;;;;;;5063933;28;20402;-78
2021/07/26 08:03:36;;;;;;;1.38;0.40;;;13.80;98.10;;;;;;5060797;28;20385;-81
2021/07/26 08:06:03;;;;;;;0.45;0.40;;;13.70;98.40;;;;;;5066830;28;20433;-80
2021/07/26 08:08:30;;;;;;;1.10;0.30;;;13.80;98.30;;;;;;5067835;28;20472;-79
2021/07/26 08:10:57;;;;;;;1.15;0.35;;;13.70;98.60;;;;;;5079891;28;20944;-77
2021/07/26 08:13:25;;;;;;;0.70;0.40;;;13.70;98.90;;;;;;5073746;28;20402;-81
2021/07/26 08:15:54;;;;;;;0.93;0.50;;;13.60;99.30;;;;;;5069433;28;20448;-78
2021/07/26 08:18:22;;;;;;;0.70;0.30;;;13.60;99.30;;;;;;5059630;28;20491;-79
2021/07/26 08:20:50;;;;;;;1.45;0.30;;;13.60;99.60;;;;;;5078190;28;20392;-78
2021/07/26 08:23:21;;;;;;;0.70;0.30;;;13.60;99.20;;;;;;5090853;28;20533;-78
2021/07/26 08:25:48;;;;;;;0.75;0.38;;;13.60;99.60;;;;;;5066343;28;20979;-79
2021/07/26 08:28:15;;;;;;;0.82;0.30;;;13.50;99.90;;;;;;5066923;28;20863;-78
2021/07/26 08:30:43;;;;;;;0.80;0.40;;;13.50;99.90;;;;;;5070091;28;20390;-79
2021/07/26 08:33:11;;;;;;;2.00;0.35;;;13.40;99.90;;;;;;5061443;28;20905;-79
2021/07/26 08:35:38;;;;;;;1.77;0.30;;;13.40;99.90;;;;;;5070548;28;20805;-79
2021/07/26 08:38:06;;;;;;;0.55;0.30;;;13.40;99.90;;;;;;5070533;28;20397;-80
2021/07/26 08:40:35;;;;;;;1.73;0.38;;;13.30;99.90;;;;;;5069739;28;20807;-79
2021/07/26 08:43:08;;;;;;;0.90;0.30;;;13.30;99.90;;;;;;5067074;28;20759;-79
2021/07/26 08:45:36;;;;;;;0.65;0.32;;;13.30;99.90;;;;;;5057001;28;20721;-79
2021/07/26 08:48:07;;;;;;;0.50;0.30;;;13.20;99.90;;;;;;5070276;28;20382;-79
2021/07/26 08:50:36;;;;;;;0.73;0.32;;;13.20;99.90;;;;;;5070335;28;20469;-79
2021/07/26 08:53:05;;;;;;;0.83;0.30;;;13.20;99.90;;;;;;5065863;28;20935;-78
2021/07/26 08:55:34;;;;;;;1.63;0.45;;;13.20;99.90;;;;;;5068482;28;20540;-79
2021/07/26 08:58:02;;;;;;;1.77;0.52;;;13.20;99.90;;;;;;5071062;28;20473;-79
2021/07/26 09:00:29;;;;;;;0.60;0.47;;;13.10;99.90;;;;;;5069832;28;20444;-79
2021/07/26 09:02:56;;;;;;;0.60;0.38;;;13.10;99.90;;;;;;5065050;28;20437;-78
2021/07/26 09:05:24;;;;;;;0.93;0.32;;;13.10;99.90;;;;;;5065678;28;20455;-79
2021/07/26 09:07:51;;;;;;;1.33;0.63;;;13.10;99.90;;;;;;5061795;28;21184;-78
2021/07/26 09:10:22;;;;;;;1.10;0.40;;;13.10;99.90;;;;;;5061833;28;20402;-78
2021/07/26 09:12:54;;;;;;;1.93;0.40;;;13.00;99.90;;;;;;5059025;28;20784;-79
2021/07/26 09:15:33;;;;;;;1.20;0.38;;;13.00;99.90;;;;;;5059392;28;20826;-79
2021/07/26 09:18:05;;;;;;;1.63;0.50;;;12.90;99.90;;;;;;5065637;28;20503;-79
2021/07/26 09:20:35;;;;;;;2.38;0.63;;;12.90;99.90;;;;;;5065295;28;20390;-79
2021/07/26 09:23:16;;;;;;;1.23;0.57;;;12.90;99.90;;;;;;5052900;28;20479;-79
2021/07/26 09:25:44;;;;;;;0.90;0.50;;;12.90;99.90;;;;;;5059018;28;20387;-79
2021/07/26 09:28:15;;;;;;;1.42;0.60;;;12.80;99.90;;;;;;5065290;28;20376;-79
2021/07/26 09:30:56;;;;;;;1.13;0.70;;;12.80;99.90;;;;;;5060854;28;20411;-79
2021/07/26 09:33:30;;;;;;;2.63;0.70;;;12.80;99.90;;;;;;5064174;28;20422;-79
2021/07/26 09:36:08;;;;;;;1.67;0.65;;;12.70;99.90;;;;;;5061997;28;20452;-79
2021/07/26 09:38:36;;;;;;;1.30;0.50;;;12.80;99.90;;;;;;5054513;28;20905;-79
2021/07/26 09:41:05;;;;;;;2.33;0.75;;;12.70;99.90;;;;;;5067868;28;20789;-78
2021/07/26 09:43:33;;;;;;;1.67;0.75;;;12.60;99.90;;;;;;5065837;28;20444;-79
2021/07/26 09:46:00;;;;;;;0.90;0.52;;;12.60;99.90;;;;;;5066318;28;20405;-79
2021/07/26 09:48:31;;;;;;;2.70;0.50;;;12.60;99.90;;;;;;5057034;28;20390;-78
2021/07/26 09:51:01;;;;;;;3.03;0.70;;;12.50;99.90;;;;;;5064520;28;20426;-79
2021/07/26 09:53:29;;;;;;;1.38;0.63;;;12.50;99.90;;;;;;5046612;28;20437;-79
2021/07/26 09:55:57;;;;;;;0.63;0.40;;;12.40;99.90;;;;;;5052125;28;20961;-79
2021/07/26 09:58:38;;;;;;;1.10;0.43;;;12.30;99.90;;;;;;5062671;28;20406;-78
2021/07/26 10:01:07;;;;;;;1.27;0.53;;;12.30;99.90;;;;;;5062364;28;20481;-78
2021/07/26 10:03:39;;;;;;;1.33;0.50;;;12.30;99.90;;;;;;5067657;28;20932;-79
2021/07/26 10:06:10;;;;;;;0.93;0.57;;;12.30;99.90;;;;;;5065188;28;20401;-79
2021/07/26 10:08:37;;;;;;;2.08;0.65;;;12.30;99.90;;;;;;5065487;28;20872;-79
2021/07/26 10:11:08;;;;;;;3.10;0.67;;;12.30;99.90;;;;;;5064297;28;20402;-78
2021/07/26 10:13:38;;;;;;;2.53;0.60;;;12.30;99.90;;;;;;5057256;28;20859;-79
2021/07/26 10:16:06;;;;;;;2.15;0.70;;;12.30;99.90;;;;;;5067389;28;20433;-78
2021/07/26 10:18:33;;;;;;;1.42;0.70;;;12.20;99.90;;;;;;5073138;28;20420;-80
2021/07/26 10:21:08;;;;;;;1.60;1.00;;;12.20;99.90;;;;;;5068538;28;20390;-80
2021/07/26 10:24:00;;;;;;;0.90;0.50;;;12.20;99.90;;;;;;5079039;28;20370;-79
2021/07/26 10:26:41;;;;;;;2.75;0.63;;;12.10;99.90;;;;;;5072330;28;20398;-80
2021/07/26 10:29:08;;;;;;;1.33;0.55;;;12.20;99.90;;;;;;5072480;28;20778;-78
2021/07/26 10:31:37;;;;;;;1.42;0.60;;;12.20;99.90;;;;;;5064860;28;20421;-78
2021/07/26 10:34:14;;;;;;;2.50;0.60;;;12.30;99.90;;;;;;5070687;28;20398;-78
2021/07/26 10:36:44;;;;;;;1.50;0.57;;;12.30;99.90;;;;;;5074402;28;21237;-78
2021/07/26 10:39:18;;;;;;;1.00;0.60;;;12.30;99.90;;;;;;5072217;28;20397;-78
2021/07/26 10:41:49;;;;;;;2.72;0.60;;;12.30;99.90;;;;;;5072027;28;20381;-79
2021/07/26 10:44:18;;;;;;;3.17;0.73;;;12.30;99.90;;;;;;5072470;28;20385;-79
2021/07/26 10:49:50;;;;;;;3.67;0.63;;;12.20;99.90;;;;;;5072570;28;20389;-79
2021/07/26 10:52:25;;;;;;;1.00;0.55;;;12.10;99.90;;;;;;5063659;28;20428;-79
2021/07/26 10:54:54;;;;;;;1.10;0.50;;;12.10;99.90;;;;;;5072373;28;20402;-78
2021/07/26 10:57:46;;;;;;;2.58;0.55;;;12.10;99.90;;;;;;5071521;28;20422;-80
2021/07/26 11:00:15;;;;;;;1.07;0.50;;;12.00;99.90;;;;;;5067206;28;20402;-79
2021/07/26 11:02:47;;;;;;;1.90;0.80;;;12.00;99.90;;;;;;5059915;28;20879;-79
2021/07/26 11:05:40;;;;;;;1.02;0.60;;;12.00;99.90;;;;;;5071317;28;20571;-79
2021/07/26 11:08:18;;;;;;;1.03;0.60;;;11.90;99.90;;;;;;5064377;28;20941;-79
2021/07/26 11:11:00;;;;;;;1.30;0.60;;;11.90;99.90;;;;;;5057795;28;20394;-79
2021/07/26 11:13:46;;;;;;;0.82;0.60;;;12.00;99.90;;;;;;5071273;28;20405;-78
2021/07/26 11:16:13;;;;;;;0.90;0.60;;;12.00;99.90;;;;;;5064458;28;20410;-78
2021/07/26 11:18:41;;;;;;;0.70;0.47;;;12.00;99.90;;;;;;5057677;28;20442;-79
2021/07/26 11:21:13;;;;;;;1.88;0.60;;;12.10;99.90;;;;;;5054057;28;20521;-79
2021/07/26 11:23:46;;;;;;;1.38;0.50;;;12.10;99.90;;;;;;5052885;28;20757;-79
2021/07/26 11:26:27;;;;;;;1.00;0.50;;;12.10;99.90;;;;;;5062854;28;20402;-79
2021/07/26 11:29:09;;;;;;;2.40;0.40;;;12.10;99.90;;;;;;5061679;28;20390;-79
2021/07/26 11:31:40;;;;;;;0.70;0.50;;;12.10;99.90;;;;;;5060638;28;20878;-78
2021/07/26 11:34:12;;;;;;;0.90;0.70;;;12.00;99.90;;;;;;5059555;28;20844;-77
2021/07/26 11:37:01;;;;;;;2.03;0.60;;;12.00;99.90;;;;;;5059301;28;20766;-79
2021/07/26 11:39:42;;;;;;;1.45;0.63;;;12.00;99.90;;;;;;5060519;28;20482;-78
2021/07/26 11:42:09;;;;;;;1.20;0.60;;;12.00;99.90;;;;;;5068723;28;20884;-77
2021/07/26 11:44:37;;;;;;;1.75;0.57;;;12.00;99.90;;;;;;5057089;28;20497;-78
2021/07/26 11:47:04;;;;;;;2.58;0.50;;;11.90;99.90;;;;;;5060528;28;20846;-77
2021/07/26 11:49:31;;;;;;;1.60;0.70;;;11.90;99.90;;;;;;5053724;28;21000;-77
2021/07/26 11:52:08;;;;;;;2.43;0.70;;;11.90;99.90;;;;;;5063898;28;20398;-77
2021/07/26 11:54:36;;;;;;;0.90;0.60;;;11.90;99.90;;;;;;5060491;28;20397;-77
2021/07/26 11:57:11;;;;;;;1.93;0.90;;;11.90;99.90;;;;;;5057613;28;20464;-77
2021/07/26 11:59:40;;;;;;;1.75;0.77;;;11.90;99.90;;;;;;5068603;28;20378;-78
2021/07/26 12:02:38;;;;;;;3.38;0.70;;;11.80;99.90;;;;;;5067977;28;20398;-77
2021/07/26 12:05:12;;;;;;;2.63;0.55;;;11.80;99.90;;;;;;5069363;28;20386;-77
2021/07/26 12:07:46;;;;;;;1.25;0.75;;;11.80;99.90;;;;;;5065492;28;20398;-77
2021/07/26 12:10:16;;;;;;;2.35;0.77;;;11.80;99.90;;;;;;5064738;28;20897;-77
2021/07/26 12:12:49;;;;;;;2.30;1.00;;;11.80;99.90;;;;;;5064670;28;20401;-77
2021/07/26 12:15:29;;;;;;;2.53;0.80;;;11.80;99.90;;;;;;5069336;28;20683;-78
2021/07/26 12:18:10;;;;;;;2.83;0.80;;;11.80;99.90;;;;;;5061564;28;20404;-78
2021/07/26 12:20:52;;;;;;;2.80;0.60;;;11.70;99.90;;;;;;5068271;28;20390;-77
2021/07/26 12:23:38;;;;;;;1.15;0.55;;;11.80;99.90;;;;;;5067528;28;20394;-77
2021/07/26 12:26:11;;;;;;;1.10;0.60;;;11.80;99.90;;;;;;5069651;28;20389;-78
2021/07/26 12:28:49;;;;;;;2.65;0.60;;;11.80;99.90;;;;;;5076098;28;20792;-78
2021/07/26 12:31:36;;;;;;;1.33;0.40;;;11.80;99.90;;;;;;5078216;28;20457;-79
2021/07/26 12:34:13;;;;;;;2.57;0.60;;;11.80;99.90;;;;;;5063921;28;20395;-78
2021/07/26 12:36:42;;;;;;;1.43;0.70;;;11.80;99.90;;;;;;5068393;28;20536;-78
2021/07/26 12:39:09;;;;;;;1.48;0.60;;;11.80;99.90;;;;;;5061108;28;20400;-78
2021/07/26 12:41:38;;;;;;;1.90;0.88;;;11.80;99.90;;;;;;5069722;28;20942;-78
2021/07/26 12:44:17;;;;;;;2.60;0.50;;;11.80;99.90;;;;;;5065372;28;20390;-79
2021/07/26 12:46:49;;;;;;;1.25;0.50;;;11.80;99.90;;;;;;5065919;28;20393;-78
2021/07/26 12:49:19;;;;;;;1.60;0.60;;;11.80;99.90;;;;;;5051390;28;20391;-78
2021/07/26 12:51:52;;;;;;;1.40;0.50;;;11.90;99.90;;;;;;5064979;28;20428;-78
2021/07/26 12:54:19;;;;;;;1.73;0.75;;;11.90;99.90;;;;;;5055128;28;20415;-78
2021/07/26 12:56:46;;;;;;;1.40;0.60;;;12.00;99.90;;;;;;5064793;28;20414;-78
2021/07/26 12:59:13;;;;;;;1.60;0.73;;;12.00;99.90;;;;;;5065256;28;20386;-78
2021/07/26 13:01:41;;;;;;;1.75;0.70;;;12.00;99.90;;;;;;5066278;28;20829;-77
2021/07/26 13:04:09;;;;;;;2.27;0.80;;;12.00;99.90;;;;;;5052351;28;20399;-78